createdAt,value
2023-01-26T00:01:17.652Z,37.23
2023-01-26T00:03:45.549Z,37.27
2023-01-26T00:06:14.858Z,35.60
2023-01-26T00:08:46.345Z,34.50
2023-01-26T00:11:15.348Z,34.10
2023-01-26T00:13:43.215Z,33.60
2023-01-26T00:16:11.986Z,35.10
2023-01-26T00:18:39.975Z,35.30
2023-01-26T00:21:08.605Z,36.90
2023-01-26T00:23:36.459Z,38.03
2023-01-26T00:26:06.506Z,37.53
2023-01-26T00:28:34.020Z,36.53
2023-01-26T00:31:05.547Z,37.33
2023-01-26T00:33:33.317Z,38.60
2023-01-26T00:36:01.033Z,38.37
2023-01-26T00:38:28.695Z,35.73
2023-01-26T00:40:56.305Z,38.77
2023-01-26T00:43:23.808Z,37.07
2023-01-26T00:45:51.321Z,38.77
2023-01-26T00:48:18.936Z,37.53
2023-01-26T00:50:46.408Z,39.33
2023-01-26T00:53:14.002Z,36.47
2023-01-26T00:55:41.461Z,38.73
2023-01-26T00:58:09.588Z,36.80
2023-01-26T01:00:39.699Z,36.03
2023-01-26T01:03:10.132Z,38.00
2023-01-26T01:05:37.648Z,36.30
2023-01-26T01:08:05.223Z,34.57
2023-01-26T01:10:32.711Z,36.60
2023-01-26T01:13:00.160Z,37.77
2023-01-26T01:15:27.747Z,37.37
2023-01-26T01:17:55.246Z,35.20
2023-01-26T01:20:22.755Z,38.40
2023-01-26T01:22:51.643Z,38.60
2023-01-26T01:25:19.265Z,36.20
2023-01-26T01:27:46.778Z,37.70
2023-01-26T01:30:15.428Z,37.23
2023-01-26T01:32:42.900Z,35.20
2023-01-26T01:35:10.424Z,38.40
2023-01-26T01:37:37.875Z,37.23
2023-01-26T01:40:05.584Z,36.53
2023-01-26T01:42:34.119Z,38.53
2023-01-26T01:45:20.079Z,35.40
2023-01-26T01:47:47.570Z,34.33
2023-01-26T01:50:17.696Z,35.00
2023-01-26T01:52:45.369Z,33.83
2023-01-26T01:55:13.942Z,32.73
2023-01-26T01:57:46.800Z,35.33
2023-01-26T02:00:16.028Z,34.00
2023-01-26T02:02:44.962Z,33.67
2023-01-26T02:05:22.937Z,33.77
2023-01-26T02:07:51.242Z,33.27
2023-01-26T02:10:20.499Z,32.13
2023-01-26T02:12:51.366Z,33.17
2023-01-26T02:15:18.864Z,33.90
2023-01-26T02:17:46.380Z,33.47
2023-01-26T02:20:26.123Z,35.03
2023-01-26T02:23:01.296Z,33.77
2023-01-26T02:25:34.614Z,31.20
2023-01-26T02:28:02.135Z,32.23
2023-01-26T02:30:29.907Z,33.17
2023-01-26T02:32:57.512Z,32.70
2023-01-26T02:35:25.045Z,31.37
2023-01-26T02:37:52.597Z,33.10
2023-01-26T02:40:35.479Z,31.77
2023-01-26T02:43:03.079Z,31.53
2023-01-26T02:45:30.936Z,31.13
2023-01-26T02:47:58.454Z,33.70
2023-01-26T02:50:26.009Z,32.63
2023-01-26T02:52:53.505Z,33.27
2023-01-26T02:55:20.972Z,33.70
2023-01-26T02:57:50.782Z,35.13
2023-01-26T03:00:18.599Z,32.53
2023-01-26T03:02:46.482Z,33.63
2023-01-26T03:05:14.449Z,31.73
2023-01-26T03:07:41.937Z,33.00
2023-01-26T03:10:10.236Z,33.70
2023-01-26T03:12:37.941Z,33.30
2023-01-26T03:15:07.311Z,33.73
2023-01-26T03:17:34.806Z,34.13
2023-01-26T03:20:02.510Z,33.93
2023-01-26T03:22:30.054Z,32.10
2023-01-26T03:24:57.708Z,33.47
2023-01-26T03:27:25.300Z,35.37
2023-01-26T03:29:52.739Z,32.73
2023-01-26T03:32:20.341Z,35.97
2023-01-26T03:34:47.843Z,34.60
2023-01-26T03:37:15.419Z,35.83
2023-01-26T03:39:42.871Z,38.73
2023-01-26T03:42:10.438Z,34.63
2023-01-26T03:44:37.909Z,35.50
2023-01-26T03:47:05.602Z,32.80
2023-01-26T03:49:33.060Z,32.50
2023-01-26T03:52:00.564Z,34.53
2023-01-26T03:54:28.034Z,34.23
2023-01-26T03:56:57.532Z,33.17
2023-01-26T03:59:25.063Z,34.80
2023-01-26T04:01:52.574Z,37.13
2023-01-26T04:04:20.172Z,33.60
2023-01-26T04:06:48.632Z,35.00
2023-01-26T04:09:16.142Z,33.10
2023-01-26T04:11:43.628Z,36.93
2023-01-26T04:14:11.826Z,32.57
2023-01-26T04:16:39.317Z,34.47
2023-01-26T04:19:06.937Z,33.40
2023-01-26T04:21:34.907Z,35.13
2023-01-26T04:24:03.180Z,35.07
2023-01-26T04:26:31.956Z,37.20
2023-01-26T04:28:59.468Z,34.83
2023-01-26T04:31:26.953Z,32.93
2023-01-26T04:33:54.488Z,33.27
2023-01-26T04:36:21.966Z,33.33
2023-01-26T04:38:49.473Z,32.87
2023-01-26T04:41:17.197Z,32.93
2023-01-26T04:43:44.901Z,32.23
2023-01-26T04:46:12.363Z,34.07
2023-01-26T04:48:39.874Z,30.77
2023-01-26T04:51:08.502Z,30.80
2023-01-26T04:53:36.251Z,33.07
2023-01-26T04:56:03.815Z,33.63
2023-01-26T04:58:31.381Z,34.33
2023-01-26T05:00:59.242Z,32.20
2023-01-26T05:03:27.052Z,34.53
2023-01-26T05:05:55.540Z,32.50
2023-01-26T05:08:23.380Z,31.67
2023-01-26T05:10:50.886Z,31.77
2023-01-26T05:13:18.562Z,32.47
2023-01-26T05:15:46.933Z,33.70
2023-01-26T05:18:14.480Z,33.47
2023-01-26T05:20:41.999Z,30.47
2023-01-26T05:23:09.490Z,32.00
2023-01-26T05:25:37.170Z,32.23
2023-01-26T05:28:04.790Z,33.23
2023-01-26T05:30:32.465Z,31.47
2023-01-26T05:33:07.993Z,30.10
2023-01-26T05:35:35.498Z,30.33
2023-01-26T05:38:03.079Z,26.47
2023-01-26T05:40:30.595Z,28.50
2023-01-26T05:42:58.067Z,28.07
2023-01-26T05:45:25.613Z,25.53
2023-01-26T05:47:53.099Z,31.17
2023-01-26T05:50:20.647Z,27.73
2023-01-26T05:52:48.117Z,27.00
2023-01-26T05:55:15.757Z,28.83
2023-01-26T05:57:43.249Z,29.63
2023-01-26T06:00:12.078Z,27.17
2023-01-26T06:02:39.821Z,28.70
2023-01-26T06:05:07.725Z,26.60
2023-01-26T06:07:35.169Z,25.50
2023-01-26T06:10:02.684Z,28.67
2023-01-26T06:12:30.139Z,26.90
2023-01-26T06:14:58.308Z,29.83
2023-01-26T06:17:25.791Z,28.63
2023-01-26T06:19:53.376Z,27.10
2023-01-26T06:22:20.818Z,29.57
2023-01-26T06:24:48.351Z,27.93
2023-01-26T06:27:16.557Z,27.07
2023-01-26T06:29:44.355Z,28.20
2023-01-26T06:32:12.357Z,27.93
2023-01-26T06:34:40.188Z,27.10
2023-01-26T06:37:07.790Z,28.03
2023-01-26T06:39:35.388Z,28.70
2023-01-26T06:42:02.886Z,27.57
2023-01-26T06:44:30.412Z,24.83
2023-01-26T06:46:57.900Z,27.50
2023-01-26T06:49:25.449Z,27.07
2023-01-26T06:51:57.723Z,26.27
2023-01-26T06:54:25.293Z,25.13
2023-01-26T06:56:52.753Z,25.20
2023-01-26T06:59:20.304Z,25.37
2023-01-26T07:01:48.159Z,24.17
2023-01-26T07:04:15.828Z,23.50
2023-01-26T07:06:43.257Z,24.47
2023-01-26T07:09:11.487Z,24.23
2023-01-26T07:11:38.975Z,26.00
2023-01-26T07:14:06.534Z,26.57
2023-01-26T07:16:34.203Z,27.13
2023-01-26T07:19:01.981Z,26.63
2023-01-26T07:21:29.439Z,28.43
2023-01-26T07:23:56.998Z,26.27
2023-01-26T07:26:24.525Z,26.13
2023-01-26T07:28:52.069Z,25.67
2023-01-26T07:31:19.726Z,25.33
2023-01-26T07:33:47.326Z,26.13
2023-01-26T07:36:14.786Z,24.63
2023-01-26T07:38:42.335Z,26.83
2023-01-26T07:41:10.787Z,23.70
2023-01-26T07:43:38.750Z,24.17
2023-01-26T07:46:07.517Z,24.20
2023-01-26T07:48:35.103Z,25.10
2023-01-26T07:51:03.471Z,26.33
2023-01-26T07:53:31.678Z,25.73
2023-01-26T07:56:09.533Z,23.53
2023-01-26T07:58:37.039Z,24.37
2023-01-26T08:01:05.159Z,24.53
2023-01-26T08:03:32.708Z,25.63
2023-01-26T08:06:00.213Z,25.27
2023-01-26T08:08:28.073Z,24.87
2023-01-26T08:11:02.178Z,25.13
2023-01-26T08:13:35.664Z,24.63
2023-01-26T08:16:05.352Z,25.30
2023-01-26T08:18:32.915Z,23.67
2023-01-26T08:21:00.471Z,25.87
2023-01-26T08:23:28.076Z,24.67
2023-01-26T08:25:55.659Z,23.17
2023-01-26T08:28:23.145Z,23.70
2023-01-26T08:30:52.794Z,25.07
2023-01-26T08:33:20.363Z,26.77
2023-01-26T08:35:47.846Z,30.13
2023-01-26T08:38:15.365Z,28.27
2023-01-26T08:40:42.862Z,28.23
2023-01-26T08:43:10.419Z,27.13
2023-01-26T08:45:37.930Z,27.77
2023-01-26T08:48:05.741Z,26.60
2023-01-26T08:50:33.190Z,26.67
2023-01-26T08:53:00.701Z,27.40
2023-01-26T08:55:28.160Z,26.83
2023-01-26T08:57:55.721Z,27.43
2023-01-26T09:00:23.759Z,27.23
2023-01-26T09:02:52.314Z,27.53
2023-01-26T09:05:19.877Z,27.97
2023-01-26T09:07:47.423Z,28.73
2023-01-26T09:10:15.073Z,27.00
2023-01-26T09:12:42.713Z,27.03
2023-01-26T09:15:10.613Z,27.10
2023-01-26T09:17:38.185Z,29.37
2023-01-26T09:20:06.248Z,28.13
2023-01-26T09:22:33.787Z,28.83
2023-01-26T09:25:01.304Z,30.87
2023-01-26T09:27:28.812Z,29.50
2023-01-26T09:29:56.324Z,28.07
2023-01-26T09:32:24.045Z,24.97
2023-01-26T09:34:51.514Z,24.73
2023-01-26T09:37:19.095Z,25.97
2023-01-26T09:39:46.559Z,22.93
2023-01-26T09:42:32.993Z,23.20
2023-01-26T09:45:06.797Z,23.20
2023-01-26T09:47:42.831Z,22.57
2023-01-26T09:50:13.920Z,24.23
2023-01-26T09:53:13.933Z,22.83
2023-01-26T09:55:42.072Z,22.53
2023-01-26T09:58:18.431Z,21.40
2023-01-26T10:00:47.813Z,22.70
2023-01-26T10:03:27.542Z,25.43
2023-01-26T10:05:58.711Z,23.83
2023-01-26T10:08:26.537Z,23.77
2023-01-26T10:10:59.527Z,23.87
2023-01-26T10:13:27.184Z,23.17
2023-01-26T10:16:10.985Z,20.20
2023-01-26T10:18:48.545Z,22.50
2023-01-26T10:21:16.587Z,15.73
2023-01-26T10:23:48.364Z,14.87
2023-01-26T10:26:17.741Z,14.60
2023-01-26T10:28:46.613Z,14.20
2023-01-26T10:31:25.486Z,14.30
2023-01-26T10:34:07.074Z,13.97
2023-01-26T10:36:34.580Z,14.40
2023-01-26T10:39:09.465Z,13.17
2023-01-26T10:41:37.586Z,13.07
2023-01-26T10:44:10.937Z,11.97
2023-01-26T10:46:39.547Z,11.97
2023-01-26T10:49:10.206Z,12.30
2023-01-26T10:51:39.064Z,11.20
2023-01-26T10:54:26.182Z,12.37
2023-01-26T10:56:53.719Z,11.80
2023-01-26T10:59:25.787Z,11.57
2023-01-26T11:02:13.583Z,11.23
2023-01-26T11:04:41.381Z,11.73
2023-01-26T11:07:24.529Z,13.47
2023-01-26T11:09:53.515Z,13.43
2023-01-26T11:12:22.068Z,13.70
2023-01-26T11:15:15.694Z,12.70
2023-01-26T11:17:50.038Z,11.57
2023-01-26T11:20:32.990Z,10.13
2023-01-26T11:23:00.471Z,11.53
2023-01-26T11:25:27.947Z,11.03
2023-01-26T11:28:27.963Z,10.40
2023-01-26T11:31:04.469Z,10.27
2023-01-26T11:33:50.209Z,8.00
2023-01-26T11:36:20.757Z,10.80
2023-01-26T11:39:00.914Z,11.97
2023-01-26T11:41:35.128Z,11.73
2023-01-26T11:44:21.705Z,11.77
2023-01-26T11:46:55.026Z,12.20
2023-01-26T11:49:22.543Z,11.87
2023-01-26T11:51:59.381Z,10.87
2023-01-26T11:54:35.571Z,10.33
2023-01-26T11:57:21.710Z,10.63
2023-01-26T11:59:53.759Z,10.20
2023-01-26T12:02:27.951Z,10.30
2023-01-26T12:04:56.556Z,9.40
2023-01-26T12:07:27.856Z,8.87
2023-01-26T12:09:55.563Z,9.03
2023-01-26T12:12:27.080Z,9.60
2023-01-26T12:15:01.286Z,9.40
2023-01-26T12:17:31.675Z,7.40
2023-01-26T12:20:20.329Z,8.67
2023-01-26T12:22:53.178Z,7.80
2023-01-26T12:25:20.862Z,6.73
2023-01-26T12:27:51.683Z,8.87
2023-01-26T12:30:19.236Z,7.13
2023-01-26T12:32:46.811Z,8.13
2023-01-26T12:35:14.508Z,7.80
2023-01-26T12:37:46.415Z,7.57
2023-01-26T12:40:27.193Z,6.83
2023-01-26T12:42:54.675Z,7.63
2023-01-26T12:45:25.398Z,7.73
2023-01-26T12:47:54.913Z,8.33
2023-01-26T12:50:28.380Z,8.47
2023-01-26T12:52:58.526Z,7.77
2023-01-26T12:55:28.818Z,9.63
2023-01-26T12:58:02.136Z,9.33
2023-01-26T13:00:31.245Z,10.80
2023-01-26T13:03:04.410Z,10.60
2023-01-26T13:05:33.696Z,10.60
2023-01-26T13:08:36.576Z,10.80
2023-01-26T13:11:06.060Z,11.83
2023-01-26T13:13:52.090Z,12.73
2023-01-26T13:16:19.605Z,12.17
2023-01-26T13:18:51.577Z,12.40
2023-01-26T13:21:27.970Z,13.27
2023-01-26T13:23:55.992Z,12.83
2023-01-26T13:26:32.596Z,12.13
2023-01-26T13:29:19.173Z,13.03
2023-01-26T13:31:46.735Z,12.20
2023-01-26T13:34:15.903Z,15.60
2023-01-26T13:36:45.022Z,13.70
2023-01-26T13:39:15.323Z,13.93
2023-01-26T13:41:47.235Z,15.20
2023-01-26T13:44:17.675Z,14.97
2023-01-26T13:46:52.249Z,14.77
2023-01-26T13:49:27.346Z,16.77
2023-01-26T13:51:55.073Z,14.83
2023-01-26T13:54:23.386Z,16.77
2023-01-26T13:57:01.565Z,16.90
2023-01-26T13:59:29.247Z,17.03
2023-01-26T14:01:57.937Z,16.47
2023-01-26T14:04:25.505Z,17.07
2023-01-26T14:06:52.962Z,16.37
2023-01-26T14:09:20.761Z,15.93
2023-01-26T14:11:54.508Z,17.67
2023-01-26T14:14:25.392Z,17.33
2023-01-26T14:16:53.090Z,16.97
2023-01-26T14:19:22.216Z,18.03
2023-01-26T14:21:50.567Z,15.23
2023-01-26T14:24:18.872Z,16.93
2023-01-26T14:26:46.475Z,18.07
2023-01-26T14:29:20.260Z,16.47
2023-01-26T14:31:48.376Z,15.00
2023-01-26T14:34:19.660Z,16.77
2023-01-26T14:36:47.391Z,14.77
2023-01-26T14:39:19.460Z,18.03
2023-01-26T14:41:47.798Z,16.27
2023-01-26T14:44:15.493Z,17.33
2023-01-26T14:47:01.598Z,17.13
2023-01-26T14:49:29.177Z,17.13
2023-01-26T14:51:57.890Z,16.10
2023-01-26T14:54:28.314Z,15.83
2023-01-26T14:56:56.662Z,19.03
2023-01-26T14:59:35.768Z,15.57
2023-01-26T15:02:05.381Z,18.70
2023-01-26T15:04:37.006Z,19.13
2023-01-26T15:07:23.138Z,20.80
2023-01-26T15:09:55.675Z,17.73
2023-01-26T15:12:23.400Z,17.93
2023-01-26T15:15:00.232Z,19.67
2023-01-26T15:17:27.820Z,20.17
2023-01-26T15:19:55.430Z,18.87
2023-01-26T15:22:24.280Z,18.03
2023-01-26T15:25:06.328Z,21.70
2023-01-26T15:27:34.774Z,15.07
2023-01-26T15:30:02.616Z,16.77
2023-01-26T15:32:31.753Z,12.30
2023-01-26T15:35:06.453Z,16.67
2023-01-26T15:37:34.317Z,17.07
2023-01-26T15:40:01.818Z,16.73
2023-01-26T15:42:29.514Z,16.20
2023-01-26T15:44:57.231Z,16.63
2023-01-26T15:47:24.768Z,17.97
2023-01-26T15:49:52.315Z,17.77
2023-01-26T15:52:21.284Z,17.83
2023-01-26T15:54:48.757Z,18.30
2023-01-26T15:57:16.277Z,16.10
2023-01-26T15:59:43.998Z,16.07
2023-01-26T16:02:21.305Z,16.33
2023-01-26T16:04:49.092Z,16.23
2023-01-26T16:07:18.057Z,15.93
2023-01-26T16:09:45.670Z,17.50
2023-01-26T16:12:30.452Z,16.67
2023-01-26T16:14:58.686Z,18.00
2023-01-26T16:17:26.368Z,17.97
2023-01-26T16:19:53.996Z,18.20
2023-01-26T16:22:21.507Z,18.23
2023-01-26T16:24:49.063Z,17.70
2023-01-26T16:27:16.592Z,19.43
2023-01-26T16:29:46.613Z,17.77
2023-01-26T16:32:28.126Z,17.63
2023-01-26T16:34:55.723Z,17.67
2023-01-26T16:37:23.232Z,18.13
2023-01-26T16:39:50.749Z,17.40
2023-01-26T16:42:19.673Z,18.83
2023-01-26T16:44:47.726Z,18.17
2023-01-26T16:47:15.254Z,17.00
2023-01-26T16:49:42.848Z,17.97
2023-01-26T16:52:10.452Z,18.80
2023-01-26T16:54:37.997Z,18.07
2023-01-26T16:57:05.520Z,19.17
2023-01-26T16:59:33.091Z,19.27
2023-01-26T17:02:00.954Z,18.53
2023-01-26T17:04:28.698Z,21.37
2023-01-26T17:06:56.234Z,20.40
2023-01-26T17:09:23.815Z,19.73
2023-01-26T17:11:51.330Z,17.90
2023-01-26T17:14:18.905Z,20.63
2023-01-26T17:16:46.439Z,19.40
2023-01-26T17:19:14.919Z,19.50
2023-01-26T17:21:42.405Z,19.63
2023-01-26T17:24:10.165Z,18.30
2023-01-26T17:26:37.716Z,19.63
2023-01-26T17:29:05.297Z,18.90
2023-01-26T17:31:32.962Z,17.87
2023-01-26T17:34:00.531Z,16.33
2023-01-26T17:36:28.059Z,17.37
2023-01-26T17:38:55.659Z,16.87
2023-01-26T17:41:23.235Z,16.17
2023-01-26T17:43:50.866Z,18.03
2023-01-26T17:46:21.999Z,17.07
2023-01-26T17:48:50.206Z,17.17
2023-01-26T17:51:19.060Z,16.57
2023-01-26T17:53:47.666Z,17.30
2023-01-26T17:56:16.350Z,16.83
2023-01-26T17:58:43.976Z,15.23
2023-01-26T18:01:11.512Z,16.43
2023-01-26T18:03:42.871Z,16.73
2023-01-26T18:06:10.884Z,17.10
2023-01-26T18:08:39.054Z,16.27
2023-01-26T18:11:07.757Z,17.53
2023-01-26T18:13:35.479Z,17.10
2023-01-26T18:16:03.246Z,17.23
2023-01-26T18:18:31.156Z,16.73
2023-01-26T18:20:58.784Z,18.67
2023-01-26T18:23:26.251Z,15.97
2023-01-26T18:25:53.949Z,17.97
2023-01-26T18:28:21.459Z,18.20
2023-01-26T18:30:49.025Z,17.83
2023-01-26T18:33:16.586Z,19.37
2023-01-26T18:35:44.162Z,20.27
2023-01-26T18:38:11.602Z,19.23
2023-01-26T18:40:39.929Z,19.90
2023-01-26T18:43:07.405Z,20.00
2023-01-26T18:45:35.187Z,20.63
2023-01-26T18:48:02.798Z,19.63
2023-01-26T18:50:30.332Z,20.83
2023-01-26T18:52:57.836Z,20.43
2023-01-26T18:55:25.357Z,19.53
2023-01-26T18:57:53.463Z,19.20
2023-01-26T19:00:21.300Z,18.43
2023-01-26T19:02:48.772Z,19.87
2023-01-26T19:05:16.339Z,20.43
2023-01-26T19:07:45.081Z,18.53
2023-01-26T19:10:12.619Z,20.00
2023-01-26T19:12:40.108Z,20.13
2023-01-26T19:15:08.127Z,19.50
2023-01-26T19:17:35.688Z,18.27
2023-01-26T19:20:03.260Z,18.20
2023-01-26T19:22:30.732Z,19.93
2023-01-26T19:24:58.450Z,18.83
2023-01-26T19:27:25.904Z,17.23
2023-01-26T19:29:53.415Z,17.10
2023-01-26T19:32:28.244Z,16.17
2023-01-26T19:35:00.755Z,13.83
2023-01-26T19:37:28.518Z,12.10
2023-01-26T19:39:56.174Z,10.03
2023-01-26T19:42:23.717Z,11.67
2023-01-26T19:44:51.243Z,9.47
2023-01-26T19:47:18.774Z,10.77
2023-01-26T19:49:46.320Z,9.70
2023-01-26T19:52:13.902Z,9.83
2023-01-26T19:54:41.546Z,8.57
2023-01-26T19:57:09.094Z,8.83
2023-01-26T19:59:36.644Z,9.17
2023-01-26T20:02:04.426Z,8.53
2023-01-26T20:04:32.078Z,8.87
2023-01-26T20:06:59.586Z,9.43
2023-01-26T20:09:27.178Z,9.27
2023-01-26T20:11:54.636Z,9.07
2023-01-26T20:14:22.169Z,8.37
2023-01-26T20:16:49.653Z,9.20
2023-01-26T20:19:17.302Z,9.37
2023-01-26T20:21:44.850Z,7.43
2023-01-26T20:24:15.687Z,8.10
2023-01-26T20:26:43.406Z,7.50
2023-01-26T20:29:12.663Z,8.50
2023-01-26T20:31:40.304Z,7.73
2023-01-26T20:34:07.970Z,7.60
2023-01-26T20:36:35.548Z,7.87
2023-01-26T20:39:03.053Z,7.83
2023-01-26T20:41:31.708Z,6.03
2023-01-26T20:44:01.709Z,6.47
2023-01-26T20:46:31.305Z,5.47
2023-01-26T20:48:58.997Z,5.77
2023-01-26T20:51:28.110Z,6.47
2023-01-26T20:53:55.729Z,5.90
2023-01-26T20:56:23.298Z,6.27
2023-01-26T20:58:52.434Z,5.87
2023-01-26T21:01:20.419Z,6.10
2023-01-26T21:03:47.975Z,5.60
2023-01-26T21:06:17.204Z,5.63
2023-01-26T21:08:44.655Z,5.37
2023-01-26T21:11:13.390Z,4.53
2023-01-26T21:13:41.229Z,4.27
2023-01-26T21:16:09.867Z,4.47
2023-01-26T21:18:37.350Z,5.10
2023-01-26T21:21:06.007Z,4.40
2023-01-26T21:23:34.337Z,4.17
2023-01-26T21:26:03.516Z,4.07
2023-01-26T21:28:31.499Z,4.33
2023-01-26T21:31:09.305Z,3.50
2023-01-26T21:33:38.180Z,4.03
2023-01-26T21:36:06.957Z,4.90
2023-01-26T21:38:35.722Z,4.63
2023-01-26T21:41:04.579Z,3.07
2023-01-26T21:43:32.093Z,4.20
2023-01-26T21:45:59.863Z,4.80
2023-01-26T21:48:27.425Z,4.17
2023-01-26T21:51:00.809Z,5.03
2023-01-26T21:53:28.343Z,3.87
2023-01-26T21:55:55.805Z,2.97
2023-01-26T21:58:23.958Z,4.73
2023-01-26T22:00:51.421Z,4.70
2023-01-26T22:03:18.996Z,3.57
2023-01-26T22:05:55.312Z,4.00
2023-01-26T22:08:22.859Z,3.77
2023-01-26T22:10:54.171Z,4.00
2023-01-26T22:13:21.788Z,4.63
2023-01-26T22:15:49.309Z,5.17
2023-01-26T22:18:17.245Z,5.10
2023-01-26T22:20:45.111Z,3.93
2023-01-26T22:23:12.687Z,4.20
2023-01-26T22:25:40.842Z,4.47
2023-01-26T22:28:08.642Z,4.40
2023-01-26T22:30:36.151Z,4.07
2023-01-26T22:33:03.675Z,3.57
2023-01-26T22:35:31.418Z,3.73
2023-01-26T22:37:59.474Z,3.40
2023-01-26T22:40:26.988Z,4.43
2023-01-26T22:42:54.613Z,3.30
2023-01-26T22:45:22.065Z,3.60
2023-01-26T22:47:49.738Z,3.63
2023-01-26T22:50:17.403Z,3.87
2023-01-26T22:52:44.958Z,4.17
2023-01-26T22:55:12.490Z,3.33
2023-01-26T22:57:40.003Z,3.70
2023-01-26T23:00:07.920Z,4.27
2023-01-26T23:02:35.480Z,4.17
2023-01-26T23:05:02.934Z,3.97
2023-01-26T23:07:30.409Z,3.77
2023-01-26T23:09:57.892Z,3.40
2023-01-26T23:12:25.394Z,3.60
2023-01-26T23:14:52.828Z,3.00
2023-01-26T23:17:20.350Z,3.40
2023-01-26T23:19:47.838Z,3.30
2023-01-26T23:22:15.411Z,3.73
2023-01-26T23:24:43.150Z,3.80
2023-01-26T23:27:10.633Z,3.53
2023-01-26T23:29:38.130Z,3.30
2023-01-26T23:32:05.862Z,4.20
2023-01-26T23:34:33.361Z,2.87
2023-01-26T23:37:00.922Z,2.87
2023-01-26T23:39:28.388Z,3.37
2023-01-26T23:41:55.958Z,3.47
2023-01-26T23:44:23.395Z,2.80
2023-01-26T23:46:51.153Z,2.53
2023-01-26T23:49:18.695Z,2.53
2023-01-26T23:51:46.208Z,2.70
2023-01-26T23:54:13.738Z,3.17
2023-01-26T23:56:41.363Z,2.90
2023-01-26T23:59:08.849Z,4.17
